createdAt,value
2022-12-20T00:01:36.206Z,0.25
2022-12-20T00:04:06.969Z,0.25
2022-12-20T00:06:36.352Z,0.14
2022-12-20T00:09:07.857Z,0.03
2022-12-20T00:11:36.672Z,-0.08
2022-12-20T00:14:04.969Z,0.16
2022-12-20T00:16:33.374Z,0.44
2022-12-20T00:19:03.786Z,0.36
2022-12-20T00:21:34.810Z,0.55
2022-12-20T00:24:03.770Z,0.45
2022-12-20T00:26:34.844Z,0.44
2022-12-20T00:29:03.570Z,0.30
2022-12-20T00:31:32.761Z,0.58
2022-12-20T00:34:02.302Z,0.50
2022-12-20T00:36:33.958Z,0.64
2022-12-20T00:39:03.200Z,0.76
2022-12-20T00:41:33.618Z,0.51
2022-12-20T00:44:02.183Z,0.70
2022-12-20T00:46:31.723Z,0.47
2022-12-20T00:49:00.481Z,0.10
2022-12-20T00:51:31.336Z,0.43
2022-12-20T00:54:01.299Z,0.37
2022-12-20T00:56:29.557Z,0.39
2022-12-20T00:59:00.282Z,0.26
2022-12-20T01:01:31.779Z,0.12
2022-12-20T01:04:00.399Z,0.31
2022-12-20T01:06:29.462Z,0.32
2022-12-20T01:08:58.721Z,0.62
2022-12-20T01:11:31.058Z,0.58
2022-12-20T01:14:02.307Z,0.50
2022-12-20T01:16:36.781Z,0.48
2022-12-20T01:19:05.862Z,0.60
2022-12-20T01:21:34.683Z,0.68
2022-12-20T01:24:03.072Z,0.62
2022-12-20T01:26:32.756Z,0.70
2022-12-20T01:29:01.409Z,0.98
2022-12-20T01:31:31.153Z,0.79
2022-12-20T01:34:01.619Z,0.74
2022-12-20T01:36:32.328Z,0.90
2022-12-20T01:39:02.923Z,0.68
2022-12-20T01:41:34.089Z,0.98
2022-12-20T01:44:04.675Z,0.80
2022-12-20T01:46:34.916Z,0.98
2022-12-20T01:49:08.261Z,1.00
2022-12-20T01:51:39.757Z,1.17
2022-12-20T01:54:13.846Z,0.85
2022-12-20T01:56:49.056Z,0.42
2022-12-20T01:59:18.293Z,0.74
2022-12-20T02:01:47.362Z,0.93
2022-12-20T02:04:15.676Z,0.82
2022-12-20T02:06:44.827Z,0.71
2022-12-20T02:09:14.015Z,0.65
2022-12-20T02:12:08.152Z,0.27
2022-12-20T02:14:51.928Z,0.73
2022-12-20T02:17:28.106Z,0.65
2022-12-20T02:20:17.672Z,0.53
2022-12-20T02:23:04.213Z,0.79
2022-12-20T02:25:54.528Z,0.65
2022-12-20T02:28:47.319Z,0.56
2022-12-20T02:31:20.355Z,0.66
2022-12-20T02:33:51.089Z,0.66
2022-12-20T02:36:19.875Z,0.53
2022-12-20T02:38:51.801Z,0.98
2022-12-20T02:41:25.014Z,1.21
2022-12-20T02:44:15.603Z,0.86
2022-12-20T02:46:46.915Z,0.95
2022-12-20T02:49:17.871Z,1.09
2022-12-20T02:51:49.410Z,1.27
2022-12-20T02:54:18.965Z,0.87
2022-12-20T02:56:53.733Z,1.06
2022-12-20T02:59:26.260Z,0.66
2022-12-20T03:01:57.956Z,0.90
2022-12-20T03:04:30.426Z,0.87
2022-12-20T03:07:00.872Z,1.09
2022-12-20T03:09:29.978Z,1.28
2022-12-20T03:11:58.623Z,1.07
2022-12-20T03:14:26.919Z,1.11
2022-12-20T03:16:59.896Z,1.21
2022-12-20T03:19:28.180Z,1.22
2022-12-20T03:21:56.509Z,0.95
2022-12-20T03:24:25.034Z,1.54
2022-12-20T03:26:54.472Z,1.36
2022-12-20T03:29:25.282Z,1.33
2022-12-20T03:31:53.588Z,1.30
2022-12-20T03:34:23.325Z,0.85
2022-12-20T03:36:51.633Z,1.06
2022-12-20T03:39:19.779Z,1.25
2022-12-20T03:41:48.242Z,1.39
2022-12-20T03:44:19.261Z,1.29
2022-12-20T03:46:47.600Z,0.91
2022-12-20T03:49:16.037Z,0.98
2022-12-20T03:51:50.611Z,0.45
2022-12-20T03:54:20.071Z,0.87
2022-12-20T03:57:07.751Z,0.52
2022-12-20T03:59:36.672Z,0.68
2022-12-20T04:02:06.629Z,0.89
2022-12-20T04:04:35.413Z,1.17
2022-12-20T04:07:05.108Z,1.23
2022-12-20T04:09:34.512Z,1.61
2022-12-20T04:12:09.322Z,1.78
2022-12-20T04:14:39.866Z,1.33
2022-12-20T04:17:08.637Z,1.40
2022-12-20T04:19:37.889Z,1.21
2022-12-20T04:22:09.031Z,1.35
2022-12-20T04:25:02.764Z,1.67
2022-12-20T04:27:34.563Z,1.56
2022-12-20T04:30:08.783Z,1.86
2022-12-20T04:32:36.956Z,1.53
2022-12-20T04:35:06.309Z,1.98
2022-12-20T04:37:40.626Z,1.90
2022-12-20T04:40:10.698Z,1.68
2022-12-20T04:42:47.581Z,1.96
2022-12-20T04:45:17.493Z,2.08
2022-12-20T04:47:45.960Z,1.69
2022-12-20T04:50:17.221Z,2.28
2022-12-20T04:53:05.231Z,1.41
2022-12-20T04:55:38.607Z,0.78
2022-12-20T04:58:07.827Z,0.88
2022-12-20T05:00:38.694Z,0.97
2022-12-20T05:03:19.758Z,1.09
2022-12-20T05:05:48.942Z,1.02
2022-12-20T05:08:19.468Z,0.76
2022-12-20T05:10:49.302Z,0.92
2022-12-20T05:13:17.857Z,0.89
2022-12-20T05:15:52.383Z,1.09
2022-12-20T05:18:26.236Z,0.62
2022-12-20T05:21:23.369Z,0.93
2022-12-20T05:24:12.810Z,0.97
2022-12-20T05:26:55.031Z,1.10
2022-12-20T05:29:23.625Z,1.15
2022-12-20T05:31:52.137Z,1.45
2022-12-20T05:34:20.804Z,1.45
2022-12-20T05:36:53.642Z,0.81
2022-12-20T05:39:26.131Z,0.94
2022-12-20T05:41:57.392Z,1.36
2022-12-20T05:44:27.285Z,1.16
2022-12-20T05:46:58.624Z,0.90
2022-12-20T05:49:30.924Z,1.20
2022-12-20T05:52:02.342Z,0.57
2022-12-20T05:54:32.827Z,0.71
2022-12-20T05:57:21.216Z,0.69
2022-12-20T05:59:49.751Z,0.26
2022-12-20T06:02:20.653Z,0.55
2022-12-20T06:04:52.593Z,0.90
2022-12-20T06:07:23.578Z,0.58
2022-12-20T06:10:00.566Z,0.63
2022-12-20T06:12:41.857Z,0.90
2022-12-20T06:15:11.351Z,0.77
2022-12-20T06:17:40.598Z,1.41
2022-12-20T06:20:12.231Z,1.80
2022-12-20T06:22:41.348Z,2.20
2022-12-20T06:25:12.526Z,1.32
2022-12-20T06:27:42.280Z,0.71
2022-12-20T06:30:19.033Z,0.44
2022-12-20T06:33:16.729Z,0.80
2022-12-20T06:35:44.929Z,0.43
2022-12-20T06:38:13.504Z,0.34
2022-12-20T06:40:43.523Z,0.38
2022-12-20T06:43:11.785Z,0.15
2022-12-20T06:45:42.177Z,-0.15
2022-12-20T06:48:12.644Z,0.23
2022-12-20T06:50:42.144Z,0.46
2022-12-20T06:53:10.934Z,0.24
2022-12-20T06:55:40.540Z,1.04
2022-12-20T06:58:10.392Z,1.12
2022-12-20T07:00:39.633Z,1.06
2022-12-20T07:03:08.810Z,1.10
2022-12-20T07:05:37.388Z,1.67
2022-12-20T07:08:06.749Z,1.18
2022-12-20T07:10:36.740Z,1.09
2022-12-20T07:13:05.268Z,1.36
2022-12-20T07:15:35.194Z,1.39
2022-12-20T07:18:03.745Z,1.26
2022-12-20T07:20:32.437Z,0.93
2022-12-20T07:23:00.957Z,1.02
2022-12-20T07:25:29.279Z,0.82
2022-12-20T07:27:57.777Z,0.78
2022-12-20T07:30:26.960Z,0.61
2022-12-20T07:32:56.791Z,0.22
2022-12-20T07:35:25.040Z,0.21
2022-12-20T07:37:54.250Z,0.56
2022-12-20T07:40:22.456Z,0.83
2022-12-20T07:42:50.900Z,0.90
2022-12-20T07:45:19.968Z,1.63
2022-12-20T07:47:48.393Z,2.03
2022-12-20T07:50:18.152Z,1.31
2022-12-20T07:52:49.253Z,0.64
2022-12-20T07:55:19.625Z,0.73
2022-12-20T07:57:51.655Z,0.71
2022-12-20T08:00:20.696Z,0.70
2022-12-20T08:02:54.030Z,1.31
2022-12-20T08:05:24.763Z,1.59
2022-12-20T08:07:58.991Z,2.80
2022-12-20T08:10:28.597Z,3.85
2022-12-20T08:12:57.464Z,5.09
2022-12-20T08:15:26.965Z,4.54
2022-12-20T08:17:55.264Z,4.72
2022-12-20T08:20:25.039Z,3.51
2022-12-20T08:22:53.281Z,2.94
2022-12-20T08:25:22.285Z,2.78
2022-12-20T08:27:50.844Z,2.03
2022-12-20T08:30:19.330Z,2.18
2022-12-20T08:32:47.533Z,2.83
2022-12-20T08:35:15.863Z,2.74
2022-12-20T08:37:45.579Z,2.85
2022-12-20T08:40:14.745Z,1.97
2022-12-20T08:42:42.903Z,2.61
2022-12-20T08:45:12.432Z,2.80
2022-12-20T08:47:40.892Z,2.22
2022-12-20T08:50:10.091Z,2.34
2022-12-20T08:52:38.456Z,1.88
2022-12-20T08:55:08.917Z,1.96
2022-12-20T08:57:37.148Z,1.92
2022-12-20T09:00:06.386Z,1.96
2022-12-20T09:02:38.291Z,1.24
2022-12-20T09:05:07.416Z,0.97
2022-12-20T09:07:35.577Z,0.99
2022-12-20T09:10:03.946Z,1.03
2022-12-20T09:12:37.329Z,1.20
2022-12-20T09:15:07.139Z,0.95
2022-12-20T09:17:35.618Z,1.73
2022-12-20T09:20:03.968Z,2.59
2022-12-20T09:22:32.201Z,3.96
2022-12-20T09:25:00.482Z,3.41
2022-12-20T09:27:28.680Z,3.88
2022-12-20T09:29:59.038Z,3.95
2022-12-20T09:32:27.273Z,5.10
2022-12-20T09:34:56.117Z,5.63
2022-12-20T09:37:24.341Z,3.85
2022-12-20T09:39:52.552Z,3.19
2022-12-20T09:42:25.798Z,3.11
2022-12-20T09:45:04.799Z,3.00
2022-12-20T09:47:36.111Z,2.62
2022-12-20T09:50:07.636Z,2.23
2022-12-20T09:52:58.395Z,2.24
2022-12-20T09:55:35.699Z,1.56
2022-12-20T09:58:20.269Z,1.70
2022-12-20T10:00:53.926Z,2.10
2022-12-20T10:03:30.207Z,2.35
2022-12-20T10:06:01.586Z,2.41
2022-12-20T10:08:46.476Z,2.94
2022-12-20T10:11:40.701Z,3.11
2022-12-20T10:14:28.261Z,2.79
2022-12-20T10:17:03.440Z,2.35
2022-12-20T10:20:00.846Z,3.43
2022-12-20T10:22:35.216Z,3.14
2022-12-20T10:25:15.511Z,4.16
2022-12-20T10:27:44.908Z,3.84
2022-12-20T10:30:16.896Z,2.57
2022-12-20T10:32:47.532Z,2.96
2022-12-20T10:35:31.497Z,3.82
2022-12-20T10:38:09.944Z,3.51
2022-12-20T10:41:18.830Z,3.16
2022-12-20T10:43:37.659Z,3.12
2022-12-20T10:46:08.511Z,3.05
2022-12-20T10:48:39.142Z,4.31
2022-12-20T10:51:17.902Z,3.96
2022-12-20T10:53:55.949Z,3.76
2022-12-20T10:56:27.565Z,4.01
2022-12-20T10:58:58.903Z,3.95
2022-12-20T11:01:31.743Z,3.79
2022-12-20T11:04:03.092Z,2.84
2022-12-20T11:06:44.938Z,3.78
2022-12-20T11:09:26.158Z,3.06
2022-12-20T11:12:02.565Z,2.89
2022-12-20T11:14:38.723Z,2.92
2022-12-20T11:17:23.804Z,2.70
2022-12-20T11:20:08.238Z,2.27
2022-12-20T11:22:52.302Z,2.10
2022-12-20T11:25:38.269Z,2.40
2022-12-20T11:28:21.383Z,2.44
2022-12-20T11:30:59.890Z,2.54
2022-12-20T11:33:44.484Z,1.59
2022-12-20T11:36:23.752Z,2.36
2022-12-20T11:39:05.525Z,1.95
2022-12-20T11:41:43.843Z,1.94
2022-12-20T11:44:26.611Z,3.06
2022-12-20T11:47:11.880Z,3.16
2022-12-20T11:50:00.512Z,3.13
2022-12-20T11:52:37.034Z,3.29
2022-12-20T11:55:18.015Z,3.71
2022-12-20T11:58:17.400Z,3.41
2022-12-20T12:00:49.544Z,4.66
2022-12-20T12:03:24.563Z,4.08
2022-12-20T12:05:57.126Z,4.92
2022-12-20T12:08:33.285Z,5.24
2022-12-20T12:11:07.486Z,5.12
2022-12-20T12:13:40.367Z,5.48
2022-12-20T12:16:12.598Z,4.36
2022-12-20T12:18:42.273Z,4.27
2022-12-20T12:21:19.811Z,4.59
2022-12-20T12:23:58.852Z,5.03
2022-12-20T12:26:30.817Z,4.71
2022-12-20T12:29:01.279Z,4.68
2022-12-20T12:31:37.362Z,3.66
2022-12-20T12:34:13.234Z,5.09
2022-12-20T12:37:07.013Z,5.63
2022-12-20T12:39:52.800Z,3.89
2022-12-20T12:42:54.673Z,3.81
2022-12-20T12:45:27.492Z,3.73
2022-12-20T12:47:59.585Z,3.41
2022-12-20T12:50:31.085Z,3.04
2022-12-20T12:53:05.017Z,3.13
2022-12-20T12:55:45.749Z,2.93
2022-12-20T12:58:33.379Z,2.46
2022-12-20T13:01:05.090Z,2.28
2022-12-20T13:03:44.293Z,2.17
2022-12-20T13:07:04.667Z,2.37
2022-12-20T13:09:53.746Z,2.66
2022-12-20T13:12:56.646Z,2.26
2022-12-20T13:19:18.644Z,2.25
2022-12-20T13:21:48.567Z,1.97
2022-12-20T13:24:53.362Z,1.78
2022-12-20T13:27:40.925Z,2.04
2022-12-20T13:30:28.561Z,2.04
2022-12-20T13:33:23.045Z,2.12
2022-12-20T13:36:04.781Z,2.26
2022-12-20T13:38:58.044Z,2.44
2022-12-20T13:41:37.033Z,2.39
2022-12-20T13:44:34.620Z,2.24
2022-12-20T13:47:08.641Z,2.45
2022-12-20T13:49:40.423Z,2.19
2022-12-20T13:52:22.381Z,2.51
2022-12-20T13:54:53.923Z,2.05
2022-12-20T13:57:29.523Z,2.35
2022-12-20T14:00:06.559Z,2.54
2022-12-20T14:02:41.144Z,2.30
2022-12-20T14:05:17.906Z,1.90
2022-12-20T14:07:53.262Z,2.16
2022-12-20T14:10:24.842Z,2.13
2022-12-20T14:12:54.148Z,2.46
2022-12-20T14:15:24.989Z,2.41
2022-12-20T14:17:53.225Z,2.58
2022-12-20T14:20:25.405Z,2.85
2022-12-20T14:23:04.953Z,2.73
2022-12-20T14:25:40.604Z,2.07
2022-12-20T14:28:26.483Z,2.71
2022-12-20T14:30:56.543Z,2.47
2022-12-20T14:33:36.066Z,2.03
2022-12-20T14:36:19.285Z,1.82
2022-12-20T14:38:50.626Z,1.99
2022-12-20T14:41:37.234Z,1.95
2022-12-20T14:44:16.715Z,1.94
2022-12-20T14:46:50.046Z,1.97
2022-12-20T14:49:25.921Z,1.98
2022-12-20T14:52:06.677Z,1.56
2022-12-20T14:55:07.154Z,1.30
2022-12-20T14:57:39.259Z,1.22
2022-12-20T15:00:15.293Z,1.19
2022-12-20T15:02:48.125Z,1.38
2022-12-20T15:05:47.220Z,1.05
2022-12-20T15:08:18.392Z,0.94
2022-12-20T15:10:54.402Z,1.03
2022-12-20T15:13:26.659Z,0.78
2022-12-20T15:15:55.556Z,1.31
2022-12-20T15:18:23.730Z,1.85
2022-12-20T15:21:03.192Z,1.96
2022-12-20T15:23:32.291Z,2.32
2022-12-20T15:26:02.909Z,2.29
2022-12-20T15:28:31.319Z,1.36
2022-12-20T15:30:59.518Z,2.13
2022-12-20T15:33:30.488Z,1.95
2022-12-20T15:35:58.864Z,2.28
2022-12-20T15:39:03.115Z,2.81
2022-12-20T15:41:22.804Z,2.54
2022-12-20T15:43:53.579Z,2.58
2022-12-20T15:46:21.933Z,2.59
2022-12-20T15:48:50.283Z,2.30
2022-12-20T15:51:22.920Z,2.64
2022-12-20T15:53:50.952Z,2.05
2022-12-20T15:56:23.122Z,1.93
2022-12-20T15:58:52.837Z,2.36
2022-12-20T16:01:23.911Z,2.12
2022-12-20T16:03:55.895Z,1.15
2022-12-20T16:06:24.256Z,2.15
2022-12-20T16:08:52.683Z,1.58
2022-12-20T16:11:24.923Z,1.62
2022-12-20T16:13:52.989Z,1.94
2022-12-20T16:16:23.465Z,1.92
2022-12-20T16:18:53.904Z,1.41
2022-12-20T16:21:24.666Z,1.11
2022-12-20T16:23:53.639Z,1.21
2022-12-20T16:26:24.991Z,1.62
2022-12-20T16:29:34.265Z,1.41
2022-12-20T16:40:01.557Z,1.76
2022-12-20T16:42:38.865Z,1.06
2022-12-20T16:45:17.229Z,1.12
2022-12-20T16:47:52.683Z,1.48
2022-12-20T16:50:28.222Z,1.40
2022-12-20T16:52:57.158Z,1.37
2022-12-20T16:55:37.710Z,1.23
2022-12-20T16:58:21.294Z,1.31
2022-12-20T17:00:51.641Z,1.57
2022-12-20T17:03:23.239Z,1.47
2022-12-20T17:05:58.083Z,2.14
2022-12-20T17:11:27.250Z,2.22
2022-12-20T17:13:58.994Z,1.87
2022-12-20T17:16:30.841Z,2.45
2022-12-20T17:19:01.377Z,2.58
2022-12-20T17:24:26.193Z,2.15
2022-12-20T17:26:55.366Z,2.21
2022-12-20T17:29:26.107Z,1.92
2022-12-20T17:31:54.576Z,1.54
2022-12-20T17:34:24.780Z,1.66
2022-12-20T17:36:54.866Z,1.36
2022-12-20T17:39:24.570Z,1.96
2022-12-20T17:41:54.160Z,2.27
2022-12-20T17:44:24.772Z,2.10
2022-12-20T17:46:56.067Z,1.66
2022-12-20T17:49:33.848Z,2.46
2022-12-20T17:52:07.129Z,2.46
2022-12-20T17:54:40.300Z,2.38
2022-12-20T17:57:16.547Z,1.85
2022-12-20T17:59:46.636Z,2.18
2022-12-20T18:02:23.114Z,1.81
2022-12-20T18:04:54.794Z,1.45
2022-12-20T18:07:25.873Z,2.04
2022-12-20T18:09:58.843Z,2.52
2022-12-20T18:12:30.280Z,2.45
2022-12-20T18:15:01.156Z,1.63
2022-12-20T18:17:47.972Z,2.06
2022-12-20T18:20:23.140Z,1.71
2022-12-20T18:23:00.217Z,1.69
2022-12-20T18:25:30.474Z,1.82
2022-12-20T18:27:58.680Z,1.81
2022-12-20T18:30:27.159Z,2.06
2022-12-20T18:33:36.974Z,1.54
2022-12-20T18:36:10.219Z,1.73
2022-12-20T18:38:39.829Z,1.65
2022-12-20T18:41:12.154Z,1.68
2022-12-20T18:43:40.826Z,1.75
2022-12-20T18:46:16.358Z,1.48
2022-12-20T18:49:32.624Z,1.05
2022-12-20T18:52:33.988Z,1.55
2022-12-20T18:55:16.082Z,1.53
2022-12-20T18:57:47.996Z,1.41
2022-12-20T19:00:21.520Z,1.97
2022-12-20T19:02:53.233Z,1.79
2022-12-20T19:05:25.024Z,1.71
2022-12-20T19:07:59.725Z,2.02
2022-12-20T19:10:38.237Z,2.02
2022-12-20T19:13:11.854Z,2.17
2022-12-20T19:15:42.095Z,1.81
2022-12-20T19:18:11.168Z,1.42
2022-12-20T19:20:42.180Z,1.67
2022-12-20T19:23:12.542Z,1.73
2022-12-20T19:25:41.629Z,1.58
2022-12-20T19:28:10.646Z,1.40
2022-12-20T19:30:39.808Z,1.76
2022-12-20T19:33:09.265Z,1.23
2022-12-20T19:35:55.503Z,1.22
2022-12-20T19:38:29.480Z,1.22
2022-12-20T19:40:58.478Z,1.32
2022-12-20T19:43:27.462Z,1.47
2022-12-20T19:45:58.415Z,1.34
2022-12-20T19:48:26.903Z,1.52
2022-12-20T19:51:03.027Z,1.81
2022-12-20T19:53:35.578Z,1.36
2022-12-20T19:56:04.819Z,1.49
2022-12-20T19:58:33.461Z,1.44
2022-12-20T20:01:06.052Z,1.82
2022-12-20T20:03:35.105Z,2.10
2022-12-20T20:06:04.947Z,2.02
2022-12-20T20:08:36.111Z,2.24
2022-12-20T20:11:09.675Z,2.80
2022-12-20T20:13:42.054Z,2.38
2022-12-20T20:16:15.471Z,3.01
2022-12-20T20:18:49.660Z,1.94
2022-12-20T20:21:24.486Z,1.90
2022-12-20T20:23:56.187Z,2.17
2022-12-20T20:26:29.855Z,1.46
2022-12-20T20:28:58.968Z,1.32
2022-12-20T20:31:27.529Z,1.41
2022-12-20T20:33:56.900Z,1.30
2022-12-20T20:36:26.307Z,1.52
2022-12-20T20:39:00.031Z,1.26
2022-12-20T20:41:29.816Z,1.33
2022-12-20T20:43:58.610Z,1.35
2022-12-20T20:46:27.049Z,1.91
2022-12-20T20:48:55.673Z,1.27
2022-12-20T20:51:24.149Z,1.38
2022-12-20T20:53:53.291Z,1.39
2022-12-20T20:56:24.306Z,1.43
2022-12-20T20:58:55.228Z,1.33
2022-12-20T21:01:28.266Z,1.16
2022-12-20T21:04:01.844Z,1.31
2022-12-20T21:06:46.981Z,2.11
2022-12-20T21:09:15.876Z,2.23
2022-12-20T21:11:47.166Z,2.22
2022-12-20T21:14:25.686Z,2.32
2022-12-20T21:17:07.008Z,2.03
2022-12-20T21:19:35.555Z,2.30
2022-12-20T21:22:05.293Z,2.21
2022-12-20T21:24:34.469Z,1.86
2022-12-20T21:27:05.273Z,2.42
2022-12-20T21:29:34.483Z,2.28
2022-12-20T21:32:04.852Z,1.83
2022-12-20T21:34:36.287Z,1.79
2022-12-20T21:37:04.859Z,2.14
2022-12-20T21:39:33.256Z,2.36
2022-12-20T21:42:02.674Z,2.90
2022-12-20T21:44:32.374Z,1.98
2022-12-20T21:47:00.893Z,2.04
2022-12-20T21:49:29.499Z,1.94
2022-12-20T21:51:58.370Z,1.98
2022-12-20T21:54:26.808Z,2.21
2022-12-20T21:56:55.082Z,2.54
2022-12-20T21:59:23.368Z,2.22
2022-12-20T22:01:53.493Z,3.07
2022-12-20T22:04:21.704Z,2.99
2022-12-20T22:06:49.951Z,2.50
2022-12-20T22:09:18.108Z,2.14
2022-12-20T22:11:48.935Z,2.16
2022-12-20T22:14:17.413Z,1.59
2022-12-20T22:16:45.850Z,1.91
2022-12-20T22:19:16.035Z,0.90
2022-12-20T22:21:44.187Z,1.30
2022-12-20T22:24:12.495Z,1.79
2022-12-20T22:26:41.808Z,1.76
2022-12-20T22:29:10.795Z,1.54
2022-12-20T22:31:39.404Z,1.55
2022-12-20T22:34:10.631Z,1.48
2022-12-20T22:36:43.763Z,1.58
2022-12-20T22:39:18.366Z,1.69
2022-12-20T22:41:49.638Z,1.60
2022-12-20T22:44:18.799Z,2.03
2022-12-20T22:46:48.439Z,1.77
2022-12-20T22:49:20.545Z,1.84
2022-12-20T22:52:06.294Z,2.06
2022-12-20T22:54:43.789Z,1.58
2022-12-20T22:57:15.544Z,1.01
2022-12-20T22:59:53.003Z,1.28
2022-12-20T23:02:27.987Z,1.71
2022-12-20T23:04:58.644Z,1.32
2022-12-20T23:07:30.148Z,1.62
2022-12-20T23:10:01.348Z,2.45
2022-12-20T23:12:47.856Z,2.66
2022-12-20T23:15:36.236Z,2.41
2022-12-20T23:18:06.867Z,1.96
2022-12-20T23:20:53.042Z,2.44
2022-12-20T23:23:24.406Z,2.85
2022-12-20T23:25:56.013Z,2.42
2022-12-20T23:28:33.433Z,2.05
2022-12-20T23:31:07.359Z,1.95
2022-12-20T23:33:45.354Z,1.80
2022-12-20T23:36:39.251Z,1.22
2022-12-20T23:39:15.839Z,1.21
2022-12-20T23:42:47.320Z,1.12
2022-12-20T23:45:22.323Z,1.35
2022-12-20T23:47:58.478Z,1.18
2022-12-20T23:50:29.148Z,1.40
2022-12-20T23:53:00.530Z,1.65
2022-12-20T23:55:31.433Z,1.58
2022-12-20T23:58:13.270Z,1.32
